Time;durP1;ratioP1;P1;durP2;ratioP2;P2;SDS_P1;SDS_P2;PMS_P1;PMS_P2;Temp;Humidity;BMP_temperature;BMP_pressure;BME280_temperature;BME280_humidity;BME280_pressure;Samples;Min_cycle;Max_cycle;Signal;HPM_P1;HPM_P2
2023/12/26 00:01:18;;;;;;;;;;;;;;;19.75;59.29;100774.41;7392247;19;1878;-51
2023/12/26 00:03:47;;;;;;;;;;;;;;;19.84;59.18;100794.19;7393094;19;1594;-51
2023/12/26 00:06:15;;;;;;;;;;;;;;;19.76;59.44;100797.56;7394289;19;1397;-51
2023/12/26 00:08:44;;;;;;;;;;;;;;;19.74;59.36;100799.56;7393816;19;1081;-50
2023/12/26 00:11:13;;;;;;;;;;;;;;;19.75;59.12;100809.28;7393433;19;1780;-51
2023/12/26 00:13:44;;;;;;;;;;;;;;;19.72;59.46;100793.47;7392430;19;1489;-51
2023/12/26 00:16:12;;;;;;;;;;;;;;;19.86;59.27;100798.44;7392762;19;1461;-51
2023/12/26 00:18:40;;;;;;;;;;;;;;;19.84;59.02;100807.63;7393101;19;1836;-50
2023/12/26 00:21:09;;;;;;;;;;;;;;;19.82;59.03;100796.19;7390075;19;1853;-51
2023/12/26 00:23:37;;;;;;;;;;;;;;;19.70;59.41;100814.22;7392543;19;1398;-50
2023/12/26 00:26:05;;;;;;;;;;;;;;;19.71;59.35;100797.13;7392565;19;1322;-51
2023/12/26 00:28:34;;;;;;;;;;;;;;;19.77;59.42;100812.66;7391440;19;1325;-51
2023/12/26 00:31:06;;;;;;;;;;;;;;;19.76;59.15;100820.88;7393161;19;1729;-51
2023/12/26 00:33:34;;;;;;;;;;;;;;;19.78;59.33;100824.28;7378760;19;1656;-51
2023/12/26 00:36:03;;;;;;;;;;;;;;;19.78;59.29;100827.81;7392653;19;1467;-51
2023/12/26 00:38:32;;;;;;;;;;;;;;;19.82;59.15;100829.22;7392822;19;1263;-51
2023/12/26 00:41:00;;;;;;;;;;;;;;;19.84;59.07;100840.66;7392919;19;1023;-51
2023/12/26 00:43:29;;;;;;;;;;;;;;;19.76;59.43;100840.50;7388887;19;1858;-51
2023/12/26 00:45:57;;;;;;;;;;;;;;;19.86;59.12;100835.16;7391144;19;2045;-51
2023/12/26 00:48:28;;;;;;;;;;;;;;;19.84;58.95;100848.72;7393326;19;1729;-51
2023/12/26 00:50:56;;;;;;;;;;;;;;;19.85;59.10;100850.38;7393365;19;1030;-51
2023/12/26 00:53:25;;;;;;;;;;;;;;;19.93;58.97;100856.91;7390127;19;1710;-51
2023/12/26 00:55:53;;;;;;;;;;;;;;;19.99;58.70;100850.97;7391108;19;1342;-51
2023/12/26 00:58:22;;;;;;;;;;;;;;;19.94;58.72;100848.72;7390398;19;1684;-51
2023/12/26 01:00:50;;;;;;;;;;;;;;;19.97;58.79;100858.31;7391512;19;1745;-51
2023/12/26 01:03:21;;;;;;;;;;;;;;;19.82;58.76;100826.53;7390683;19;1843;-51
2023/12/26 01:05:53;;;;;;;;;;;;;;;19.95;58.92;100845.03;7391185;19;1732;-51
2023/12/26 01:08:22;;;;;;;;;;;;;;;19.98;58.63;100846.63;7392025;19;1423;-51
2023/12/26 01:10:51;;;;;;;;;;;;;;;20.03;58.67;100849.72;7394133;19;1078;-51
2023/12/26 01:13:19;;;;;;;;;;;;;;;19.94;58.80;100840.66;7393827;19;1602;-51
2023/12/26 01:15:47;;;;;;;;;;;;;;;20.01;58.68;100839.09;7394660;19;1062;-51
2023/12/26 01:18:16;;;;;;;;;;;;;;;19.97;58.69;100853.78;7393757;19;1677;-51
2023/12/26 01:20:44;;;;;;;;;;;;;;;19.97;58.82;100840.38;7393535;19;1467;-51
2023/12/26 01:23:16;;;;;;;;;;;;;;;19.97;58.75;100828.81;7391181;19;1850;-51
2023/12/26 01:25:45;;;;;;;;;;;;;;;19.90;58.95;100833.88;7394209;19;1527;-51
2023/12/26 01:28:13;;;;;;;;;;;;;;;19.93;58.94;100832.75;7392304;19;1819;-52
2023/12/26 01:30:42;;;;;;;;;;;;;;;20.02;58.95;100853.41;7390890;19;1748;-51
2023/12/26 01:33:10;;;;;;;;;;;;;;;20.02;58.93;100848.88;7380378;19;1709;-53
2023/12/26 01:35:39;;;;;;;;;;;;;;;20.00;58.68;100841.94;7398557;19;1417;-51
2023/12/26 01:38:07;;;;;;;;;;;;;;;20.00;58.61;100836.59;7399139;19;1022;-51
2023/12/26 01:40:40;;;;;;;;;;;;;;;19.98;58.88;100841.25;7397808;19;1828;-51
2023/12/26 01:43:09;;;;;;;;;;;;;;;19.99;58.76;100845.59;7396540;19;1863;-51
2023/12/26 01:45:37;;;;;;;;;;;;;;;20.05;58.42;100843.22;7398911;19;1634;-51
2023/12/26 01:48:04;;;;;;;;;;;;;;;20.03;58.70;100852.38;7398961;19;1814;-51
2023/12/26 01:50:33;;;;;;;;;;;;;;;20.00;58.60;100858.91;7398409;19;1428;-51
2023/12/26 01:53:02;;;;;;;;;;;;;;;19.99;58.75;100857.19;7397617;19;1390;-51
2023/12/26 01:55:31;;;;;;;;;;;;;;;19.92;58.94;100852.53;7399401;19;1077;-51
2023/12/26 01:58:02;;;;;;;;;;;;;;;19.92;58.92;100850.69;7398012;19;1915;-51
2023/12/26 02:00:30;;;;;;;;;;;;;;;20.02;58.86;100848.03;7397734;19;1760;-51
2023/12/26 02:02:58;;;;;;;;;;;;;;;20.08;58.60;100855.53;7396068;19;1899;-51
2023/12/26 02:05:27;;;;;;;;;;;;;;;20.04;58.49;100856.78;7398667;19;1792;-51
2023/12/26 02:07:55;;;;;;;;;;;;;;;20.07;58.67;100864.53;7397726;19;1852;-51
2023/12/26 02:10:24;;;;;;;;;;;;;;;19.99;58.63;100854.50;7396776;19;1680;-51
2023/12/26 02:12:52;;;;;;;;;;;;;;;20.03;58.44;100841.66;7396628;19;1868;-52
2023/12/26 02:15:23;;;;;;;;;;;;;;;20.07;58.39;100853.81;7396623;19;1598;-51
2023/12/26 02:17:52;;;;;;;;;;;;;;;19.97;58.76;100847.59;7396399;19;2010;-51
2023/12/26 02:20:21;;;;;;;;;;;;;;;19.95;58.51;100861.13;7397293;19;1456;-51
2023/12/26 02:22:49;;;;;;;;;;;;;;;19.92;58.89;100857.91;7395800;19;1858;-51
2023/12/26 02:25:20;;;;;;;;;;;;;;;19.92;58.88;100865.97;7396934;19;1748;-51
2023/12/26 02:27:51;;;;;;;;;;;;;;;19.92;58.81;100874.00;7397696;19;1563;-51
2023/12/26 02:30:20;;;;;;;;;;;;;;;19.97;58.72;100885.16;7396006;19;1475;-51
2023/12/26 02:32:49;;;;;;;;;;;;;;;19.93;58.71;100878.38;7398420;19;990;-51
2023/12/26 02:35:18;;;;;;;;;;;;;;;19.93;58.76;100873.00;7382814;19;1649;-51
2023/12/26 02:37:49;;;;;;;;;;;;;;;19.84;59.03;100878.22;7397622;19;1752;-51
2023/12/26 02:40:20;;;;;;;;;;;;;;;19.85;58.96;100879.91;7396621;19;1546;-51
2023/12/26 02:42:49;;;;;;;;;;;;;;;19.84;58.95;100872.84;7395804;19;1900;-51
2023/12/26 02:45:17;;;;;;;;;;;;;;;19.86;58.77;100878.09;7394440;19;1915;-51
2023/12/26 02:47:45;;;;;;;;;;;;;;;19.88;58.61;100870.75;7396458;19;1451;-51
2023/12/26 02:50:14;;;;;;;;;;;;;;;19.87;58.63;100871.72;7396449;19;1765;-51
2023/12/26 02:52:43;;;;;;;;;;;;;;;19.88;58.78;100875.28;7396836;19;1038;-52
2023/12/26 02:55:11;;;;;;;;;;;;;;;19.83;58.80;100868.47;7396797;19;1165;-53
2023/12/26 02:57:42;;;;;;;;;;;;;;;19.86;58.92;100873.56;7396137;19;1583;-51
2023/12/26 03:00:11;;;;;;;;;;;;;;;19.87;58.79;100879.78;7395480;19;1401;-51
2023/12/26 03:02:39;;;;;;;;;;;;;;;19.75;58.89;100870.16;7394179;19;1874;-51
2023/12/26 03:05:08;;;;;;;;;;;;;;;19.83;58.81;100863.09;7395386;19;1493;-51
2023/12/26 03:07:34;;;;;;;;;;;;;;;19.83;58.73;100863.09;7395092;19;1433;-51
2023/12/26 03:10:07;;;;;;;;;;;;;;;19.85;58.86;100860.28;7394692;19;1874;-51
2023/12/26 03:12:35;;;;;;;;;;;;;;;19.83;58.73;100857.72;7392147;19;1796;-51
2023/12/26 03:15:07;;;;;;;;;;;;;;;19.88;58.83;100867.22;7395881;19;1795;-51
2023/12/26 03:17:35;;;;;;;;;;;;;;;19.81;58.71;100866.91;7396056;19;1704;-52
2023/12/26 03:20:04;;;;;;;;;;;;;;;19.86;58.69;100857.47;7395312;19;1334;-51
2023/12/26 03:22:32;;;;;;;;;;;;;;;19.88;58.67;100864.53;7394985;19;1855;-51
2023/12/26 03:25:00;;;;;;;;;;;;;;;19.81;58.97;100867.75;7395546;19;1728;-51
2023/12/26 03:27:29;;;;;;;;;;;;;;;19.89;58.68;100864.38;7396389;19;947;-51
2023/12/26 03:29:58;;;;;;;;;;;;;;;19.82;58.46;100861.41;7395526;19;1567;-51
2023/12/26 03:32:29;;;;;;;;;;;;;;;19.80;58.84;100866.06;7394597;19;1827;-51
2023/12/26 03:34:57;;;;;;;;;;;;;;;19.86;58.61;100864.69;7380238;19;1582;-51
2023/12/26 03:37:25;;;;;;;;;;;;;;;19.82;58.77;100866.78;7394960;19;1729;-52
2023/12/26 03:39:54;;;;;;;;;;;;;;;19.81;58.50;100875.81;7394911;19;1819;-51
2023/12/26 03:42:22;;;;;;;;;;;;;;;19.75;58.90;100876.38;7393013;19;1877;-51
2023/12/26 03:44:50;;;;;;;;;;;;;;;19.78;58.95;100876.09;7395546;19;1030;-51
2023/12/26 03:47:19;;;;;;;;;;;;;;;19.84;58.60;100883.59;7394307;19;1797;-51
2023/12/26 03:49:50;;;;;;;;;;;;;;;19.82;58.62;100876.69;7394425;19;1465;-51
2023/12/26 03:52:18;;;;;;;;;;;;;;;19.94;58.26;100890.81;7393024;19;1933;-51
2023/12/26 03:54:47;;;;;;;;;;;;;;;20.14;57.88;100884.50;7394443;19;1649;-51
2023/12/26 03:57:15;;;;;;;;;;;;;;;19.99;58.34;100899.28;7393871;19;1729;-51
2023/12/26 03:59:44;;;;;;;;;;;;;;;19.76;58.75;100890.66;7393295;19;1282;-51
2023/12/26 04:02:12;;;;;;;;;;;;;;;19.43;59.63;100898.81;7393090;19;1315;-51
2023/12/26 04:04:40;;;;;;;;;;;;;;;19.18;60.50;100889.41;7392332;19;1841;-51
2023/12/26 04:07:11;;;;;;;;;;;;;;;19.03;60.83;100902.28;7392086;19;1646;-50
2023/12/26 04:09:40;;;;;;;;;;;;;;;18.92;60.81;100898.84;7393776;19;1649;-50
2023/12/26 04:12:08;;;;;;;;;;;;;;;18.69;61.34;100897.13;7393357;19;1314;-51
2023/12/26 04:14:37;;;;;;;;;;;;;;;18.74;61.38;100909.28;7393058;19;1709;-51
2023/12/26 04:17:05;;;;;;;;;;;;;;;18.62;61.64;100904.00;7393258;19;1752;-50
2023/12/26 04:19:34;;;;;;;;;;;;;;;18.50;61.83;100915.72;7394367;19;996;-51
2023/12/26 04:22:02;;;;;;;;;;;;;;;18.43;61.98;100910.03;7393060;19;1847;-51
2023/12/26 04:24:33;;;;;;;;;;;;;;;18.38;62.17;100916.75;7391939;19;1826;-50
2023/12/26 04:27:01;;;;;;;;;;;;;;;18.32;62.08;100915.41;7392884;19;1812;-51
2023/12/26 04:29:30;;;;;;;;;;;;;;;18.28;62.21;100913.97;7393023;19;1725;-51
2023/12/26 04:31:58;;;;;;;;;;;;;;;18.27;62.08;100936.38;7392277;19;1503;-51
2023/12/26 04:34:26;;;;;;;;;;;;;;;18.32;62.03;100923.44;7378041;19;1900;-51
2023/12/26 04:36:55;;;;;;;;;;;;;;;18.25;62.23;100920.44;7392572;19;1739;-51
2023/12/26 04:39:23;;;;;;;;;;;;;;;18.15;62.68;100924.03;7391151;19;1634;-51
2023/12/26 04:41:54;;;;;;;;;;;;;;;18.15;62.53;100922.19;7392263;19;1010;-51
2023/12/26 04:44:22;;;;;;;;;;;;;;;18.24;62.08;100925.91;7390555;19;1922;-51
2023/12/26 04:46:51;;;;;;;;;;;;;;;18.12;62.37;100924.25;7391318;19;1430;-51
2023/12/26 04:49:19;;;;;;;;;;;;;;;18.12;62.41;100924.25;7392426;19;1670;-50
2023/12/26 04:51:48;;;;;;;;;;;;;;;17.99;62.52;100903.03;7391971;19;1784;-51
2023/12/26 04:54:16;;;;;;;;;;;;;;;17.95;63.09;100939.88;7392283;19;1807;-51
2023/12/26 04:56:45;;;;;;;;;;;;;;;17.94;62.92;100932.81;7391717;19;1720;-50
2023/12/26 04:59:16;;;;;;;;;;;;;;;17.93;62.75;100939.16;7389281;19;1901;-50
2023/12/26 05:01:44;;;;;;;;;;;;;;;17.91;63.08;100934.91;7392405;19;1425;-51
2023/12/26 05:04:13;;;;;;;;;;;;;;;17.92;62.98;100931.25;7390296;19;1838;-51
2023/12/26 05:06:41;;;;;;;;;;;;;;;17.96;62.60;100938.88;7390655;19;1369;-51
2023/12/26 05:09:09;;;;;;;;;;;;;;;18.02;62.36;100919.66;7391022;19;1439;-51
2023/12/26 05:11:38;;;;;;;;;;;;;;;17.98;62.73;100957.50;7392763;19;1616;-51
2023/12/26 05:14:06;;;;;;;;;;;;;;;17.85;62.75;100933.56;7392223;19;1101;-51
2023/12/26 05:16:40;;;;;;;;;;;;;;;17.81;62.97;100943.63;7391228;19;1733;-51
2023/12/26 05:19:08;;;;;;;;;;;;;;;17.80;63.28;100955.28;7391534;19;1495;-51
2023/12/26 05:21:37;;;;;;;;;;;;;;;17.78;63.31;100940.34;7390735;19;1851;-50
2023/12/26 05:24:06;;;;;;;;;;;;;;;17.76;63.08;100943.13;7390090;19;1834;-51
2023/12/26 05:26:39;;;;;;;;;;;;;;;17.69;63.22;100937.44;7392689;19;947;-51
2023/12/26 05:29:08;;;;;;;;;;;;;;;17.93;62.78;100944.50;7391422;19;1497;-51
2023/12/26 05:31:39;;;;;;;;;;;;;;;18.32;62.01;100976.16;7390531;19;1499;-51
2023/12/26 05:34:09;;;;;;;;;;;;;;;18.44;61.27;100934.97;7376028;19;1620;-51
2023/12/26 05:36:38;;;;;;;;;;;;;;;18.29;61.75;100950.50;7390936;19;1354;-51
2023/12/26 05:39:06;;;;;;;;;;;;;;;18.18;62.10;100942.47;7390533;19;1464;-51
2023/12/26 05:41:34;;;;;;;;;;;;;;;18.10;62.21;100940.44;7391712;19;1018;-51
2023/12/26 05:44:04;;;;;;;;;;;;;;;17.83;62.16;100909.59;7390299;19;1844;-51
2023/12/26 05:46:32;;;;;;;;;;;;;;;17.86;62.62;100951.31;7390590;19;1898;-51
2023/12/26 05:49:03;;;;;;;;;;;;;;;17.83;62.95;100959.56;7390734;19;1788;-51
2023/12/26 05:51:32;;;;;;;;;;;;;;;17.86;62.85;100970.03;7388650;19;1473;-51
2023/12/26 05:54:00;;;;;;;;;;;;;;;17.74;62.87;100953.09;7388724;19;1731;-51
2023/12/26 05:56:28;;;;;;;;;;;;;;;17.72;63.11;100970.25;7391245;19;1760;-51
2023/12/26 05:58:57;;;;;;;;;;;;;;;17.58;63.34;100968.69;7390027;19;1800;-51
2023/12/26 06:01:25;;;;;;;;;;;;;;;17.63;63.29;100963.81;7388213;19;1760;-51
2023/12/26 06:03:54;;;;;;;;;;;;;;;18.00;62.54;100963.56;7387951;19;1823;-51
2023/12/26 06:06:25;;;;;;;;;;;;;;;18.33;61.72;100961.81;7391661;19;1720;-51
2023/12/26 06:08:53;;;;;;;;;;;;;;;18.35;61.37;100957.19;7390974;19;1681;-51
2023/12/26 06:11:22;;;;;;;;;;;;;;;18.23;61.51;100956.34;7391000;19;1572;-51
2023/12/26 06:13:50;;;;;;;;;;;;;;;18.15;62.02;100975.72;7391032;19;1776;-51
2023/12/26 06:16:19;;;;;;;;;;;;;;;18.04;62.30;100975.72;7390564;19;1910;-51
2023/12/26 06:18:47;;;;;;;;;;;;;;;18.06;62.00;100981.81;7391118;19;1333;-51
2023/12/26 06:21:15;;;;;;;;;;;;;;;18.06;62.07;100973.78;7396946;19;1760;-52
2023/12/26 06:23:46;;;;;;;;;;;;;;;18.02;62.20;100975.00;7395932;19;1841;-51
2023/12/26 06:26:17;;;;;;;;;;;;;;;18.06;62.04;100955.91;7397261;19;1768;-51
2023/12/26 06:28:45;;;;;;;;;;;;;;;18.01;62.16;100967.97;7396091;19;1385;-51
2023/12/26 06:31:14;;;;;;;;;;;;;;;17.87;62.19;100975.25;7395643;19;1747;-50
2023/12/26 06:33:42;;;;;;;;;;;;;;;17.80;62.51;100975.84;7393989;19;1685;-51
2023/12/26 06:36:11;;;;;;;;;;;;;;;17.85;62.50;100974.53;7382240;19;1306;-51
2023/12/26 06:38:39;;;;;;;;;;;;;;;17.79;62.46;100969.66;7396087;19;1409;-51
2023/12/26 06:41:10;;;;;;;;;;;;;;;18.04;62.21;100978.41;7397745;19;1076;-51
2023/12/26 06:43:39;;;;;;;;;;;;;;;18.40;61.29;100979.03;7393316;19;1842;-51
2023/12/26 06:46:07;;;;;;;;;;;;;;;18.44;61.04;100981.38;7394997;19;1731;-51
2023/12/26 06:48:35;;;;;;;;;;;;;;;18.25;61.49;100976.66;7395330;19;1831;-51
2023/12/26 06:51:06;;;;;;;;;;;;;;;18.18;61.82;100975.44;7396104;19;1404;-51
2023/12/26 06:53:34;;;;;;;;;;;;;;;18.07;61.92;100970.13;7396024;19;1744;-52
2023/12/26 06:56:02;;;;;;;;;;;;;;;18.03;61.99;100987.41;7395004;19;1795;-51
2023/12/26 06:58:34;;;;;;;;;;;;;;;17.91;62.37;100977.72;7394557;19;1409;-51
2023/12/26 07:01:02;;;;;;;;;;;;;;;17.98;62.13;100984.25;7395206;19;1416;-51
2023/12/26 07:03:30;;;;;;;;;;;;;;;17.98;62.02;100973.53;7395791;19;1846;-51
2023/12/26 07:05:59;;;;;;;;;;;;;;;17.97;62.19;100994.09;7395723;19;1831;-51
2023/12/26 07:08:27;;;;;;;;;;;;;;;17.93;62.14;100992.66;7395059;19;1782;-51
2023/12/26 07:10:55;;;;;;;;;;;;;;;17.93;62.27;100991.81;7394576;19;1520;-52
2023/12/26 07:13:24;;;;;;;;;;;;;;;17.93;62.24;101006.03;7392202;19;2032;-52
2023/12/26 07:15:55;;;;;;;;;;;;;;;18.21;61.63;100996.63;7393875;19;1326;-52
2023/12/26 07:18:23;;;;;;;;;;;;;;;18.38;61.22;100991.72;7394981;19;1765;-51
2023/12/26 07:20:52;;;;;;;;;;;;;;;18.31;61.14;101007.44;7394283;19;1661;-51
2023/12/26 07:23:20;;;;;;;;;;;;;;;18.20;61.55;101005.63;7394548;19;1792;-51
2023/12/26 07:25:49;;;;;;;;;;;;;;;18.05;61.89;100997.00;7391942;19;1847;-51
2023/12/26 07:28:18;;;;;;;;;;;;;;;18.01;61.96;101002.75;7394110;19;1493;-51
2023/12/26 07:30:46;;;;;;;;;;;;;;;17.95;62.04;101016.63;7392901;19;1769;-51
2023/12/26 07:33:17;;;;;;;;;;;;;;;17.85;62.23;101000.44;7392488;19;1828;-51
2023/12/26 07:35:45;;;;;;;;;;;;;;;17.73;61.98;101022.78;7376719;19;2069;-51
2023/12/26 07:38:14;;;;;;;;;;;;;;;17.54;62.66;101007.31;7394488;19;1402;-51
2023/12/26 07:40:42;;;;;;;;;;;;;;;17.58;62.65;101006.13;7392258;19;1677;-51
2023/12/26 07:43:12;;;;;;;;;;;;;;;17.55;62.75;101025.06;7393580;19;1351;-51
2023/12/26 07:45:40;;;;;;;;;;;;;;;17.65;62.69;101034.09;7391000;19;1858;-51
2023/12/26 07:48:10;;;;;;;;;;;;;;;17.82;62.58;101022.03;7393139;19;1815;-52
2023/12/26 07:50:41;;;;;;;;;;;;;;;17.82;62.38;101044.28;7394487;19;1693;-51
2023/12/26 07:53:10;;;;;;;;;;;;;;;17.74;62.52;101043.19;7394161;19;1404;-51
2023/12/26 07:55:38;;;;;;;;;;;;;;;17.74;62.46;101033.34;7394674;19;1693;-52
2023/12/26 07:58:07;;;;;;;;;;;;;;;17.66;62.75;101030.44;7394679;19;1070;-51
2023/12/26 08:00:36;;;;;;;;;;;;;;;17.65;62.68;101048.31;7394454;19;1769;-51
2023/12/26 08:03:04;;;;;;;;;;;;;;;17.57;62.76;101066.78;7394446;19;1789;-51
2023/12/26 08:05:32;;;;;;;;;;;;;;;17.48;63.01;101049.59;7391685;19;1863;-51
2023/12/26 08:08:03;;;;;;;;;;;;;;;17.45;63.07;101051.69;7394326;19;1749;-51
2023/12/26 08:10:32;;;;;;;;;;;;;;;17.49;62.92;101056.66;7393775;19;1437;-51
2023/12/26 08:13:00;;;;;;;;;;;;;;;17.52;63.09;101060.06;7392663;19;1713;-52
2023/12/26 08:15:29;;;;;;;;;;;;;;;17.70;62.94;101050.59;7391040;19;1441;-51
2023/12/26 08:17:58;;;;;;;;;;;;;;;17.99;62.50;101060.88;7394466;19;1943;-52
2023/12/26 08:20:26;;;;;;;;;;;;;;;17.91;62.41;101052.63;7394977;19;1840;-52
2023/12/26 08:22:55;;;;;;;;;;;;;;;17.83;62.65;101046.03;7396468;19;1430;-52
2023/12/26 08:25:27;;;;;;;;;;;;;;;17.84;62.43;101052.22;7395040;19;1865;-52
2023/12/26 08:27:55;;;;;;;;;;;;;;;17.86;62.30;101047.63;7396550;19;1721;-52
2023/12/26 08:30:24;;;;;;;;;;;;;;;17.83;62.36;101050.50;7397352;19;991;-52
2023/12/26 08:32:52;;;;;;;;;;;;;;;17.74;62.63;101044.03;7396067;19;1774;-51
2023/12/26 08:35:20;;;;;;;;;;;;;;;17.67;62.76;101050.88;7381627;19;1110;-51
2023/12/26 08:37:49;;;;;;;;;;;;;;;17.62;62.74;101047.69;7394895;19;1867;-52
2023/12/26 08:40:18;;;;;;;;;;;;;;;17.69;63.05;101046.25;7395667;19;1757;-52
2023/12/26 08:42:49;;;;;;;;;;;;;;;17.65;62.89;101052.81;7390763;19;1787;-52
2023/12/26 08:45:17;;;;;;;;;;;;;;;17.65;62.90;101050.97;7392168;19;1841;-52
2023/12/26 08:47:46;;;;;;;;;;;;;;;17.66;62.73;101038.44;7392161;19;1851;-52
2023/12/26 08:50:14;;;;;;;;;;;;;;;17.69;62.74;101059.63;7392839;19;1605;-52
2023/12/26 08:52:42;;;;;;;;;;;;;;;17.65;62.76;101039.44;7390439;19;1464;-52
2023/12/26 08:55:11;;;;;;;;;;;;;;;17.65;62.88;101034.94;7391167;19;1291;-52
2023/12/26 08:57:40;;;;;;;;;;;;;;;17.79;62.75;101028.50;7390638;19;1354;-51
2023/12/26 09:00:14;;;;;;;;;;;;;;;18.06;62.11;101022.81;7392044;19;1725;-52
2023/12/26 09:02:43;;;;;;;;;;;;;;;18.04;62.25;101021.22;7392664;19;1799;-52
2023/12/26 09:05:13;;;;;;;;;;;;;;;18.01;62.06;101014.28;7390786;19;1849;-52
2023/12/26 09:07:41;;;;;;;;;;;;;;;18.03;61.91;101012.34;7392001;19;1034;-52
2023/12/26 09:10:10;;;;;;;;;;;;;;;18.04;61.83;100997.97;7391385;19;1493;-52
2023/12/26 09:12:38;;;;;;;;;;;;;;;18.05;61.91;100997.00;7389926;19;1860;-52
2023/12/26 09:15:07;;;;;;;;;;;;;;;18.05;61.91;101005.03;7392213;19;1749;-52
2023/12/26 09:17:38;;;;;;;;;;;;;;;18.00;62.20;101003.72;7390759;19;1405;-53
2023/12/26 09:20:09;;;;;;;;;;;;;;;17.87;62.27;100990.47;7391586;19;1765;-52
2023/12/26 09:22:38;;;;;;;;;;;;;;;17.87;62.27;100991.31;7390448;19;1219;-52
2023/12/26 09:25:07;;;;;;;;;;;;;;;17.89;62.36;100997.41;7390812;19;1857;-52
2023/12/26 09:27:36;;;;;;;;;;;;;;;17.83;62.50;100991.66;7392425;19;1014;-52
2023/12/26 09:30:04;;;;;;;;;;;;;;;17.82;62.38;100980.09;7389950;19;1714;-52
2023/12/26 09:32:33;;;;;;;;;;;;;;;17.83;62.46;100989.88;7390410;19;1822;-52
2023/12/26 09:35:04;;;;;;;;;;;;;;;17.77;62.70;100982.28;7377323;19;1298;-52
2023/12/26 09:37:34;;;;;;;;;;;;;;;17.75;62.71;100980.72;7389236;19;1314;-52
2023/12/26 09:40:03;;;;;;;;;;;;;;;17.72;62.98;100979.13;7391042;19;1551;-52
2023/12/26 09:42:32;;;;;;;;;;;;;;;17.72;62.89;100981.81;7390724;19;1472;-52
2023/12/26 09:45:02;;;;;;;;;;;;;;;17.71;62.84;100982.78;7391008;19;1836;-52
2023/12/26 09:47:32;;;;;;;;;;;;;;;17.66;62.96;100963.56;7391495;19;1085;-52
2023/12/26 09:50:00;;;;;;;;;;;;;;;17.63;63.12;100975.38;7389593;19;1764;-52
2023/12/26 09:52:32;;;;;;;;;;;;;;;17.62;63.08;100959.44;7389892;19;1527;-52
2023/12/26 09:55:00;;;;;;;;;;;;;;;17.60;63.32;100967.56;7395894;19;1914;-52
2023/12/26 09:57:29;;;;;;;;;;;;;;;17.57;63.36;100954.47;7398097;19;1992;-52
2023/12/26 09:59:58;;;;;;;;;;;;;;;17.58;63.34;100949.97;7397472;19;1916;-52
2023/12/26 10:02:26;;;;;;;;;;;;;;;17.61;63.19;100963.94;7395463;19;1420;-51
2023/12/26 10:04:55;;;;;;;;;;;;;;;17.60;63.40;100958.72;7397825;19;1840;-52
2023/12/26 10:07:23;;;;;;;;;;;;;;;17.69;63.17;100963.34;7397337;19;1674;-52
2023/12/26 10:09:54;;;;;;;;;;;;;;;17.81;62.83;100957.00;7397423;19;1614;-52
2023/12/26 10:12:22;;;;;;;;;;;;;;;17.84;62.52;100940.72;7397799;19;2017;-52
2023/12/26 10:14:51;;;;;;;;;;;;;;;17.92;62.47;100947.28;7398566;19;1006;-51
2023/12/26 10:17:22;;;;;;;;;;;;;;;17.90;62.47;100936.69;7396964;19;1598;-52
2023/12/26 10:19:50;;;;;;;;;;;;;;;18.01;62.20;100960.78;7397542;19;1772;-52
2023/12/26 10:22:19;;;;;;;;;;;;;;;17.90;62.42;100942.06;7396374;19;1397;-52
2023/12/26 10:24:50;;;;;;;;;;;;;;;17.95;62.40;100955.09;7397553;19;1842;-51
2023/12/26 10:27:21;;;;;;;;;;;;;;;17.92;62.29;100936.59;7397411;19;1701;-52
2023/12/26 10:29:52;;;;;;;;;;;;;;;17.96;62.18;100932.69;7397398;19;1749;-52
2023/12/26 10:32:24;;;;;;;;;;;;;;;18.06;61.86;100947.00;7396137;19;1739;-52
2023/12/26 10:34:53;;;;;;;;;;;;;;;18.09;61.59;100928.03;7396493;19;1602;-52
2023/12/26 10:37:22;;;;;;;;;;;;;;;18.02;61.82;100934.84;7382689;19;1799;-51
2023/12/26 10:39:50;;;;;;;;;;;;;;;17.92;62.31;100931.25;7396550;19;1555;-52
2023/12/26 10:42:21;;;;;;;;;;;;;;;17.94;62.23;100923.94;7397470;19;1794;-52
2023/12/26 10:44:55;;;;;;;;;;;;;;;18.01;61.93;100917.97;7396714;19;1840;-52
2023/12/26 10:47:23;;;;;;;;;;;;;;;18.03;61.84;100907.97;7396253;19;1586;-52
2023/12/26 10:49:55;;;;;;;;;;;;;;;18.03;61.57;100907.97;7397888;19;1049;-51
2023/12/26 10:52:24;;;;;;;;;;;;;;;18.08;61.71;100905.78;7396701;19;1788;-52
2023/12/26 10:54:54;;;;;;;;;;;;;;;18.06;61.83;100909.53;7395736;19;1531;-51
2023/12/26 10:57:26;;;;;;;;;;;;;;;18.03;61.92;100899.97;7395282;19;1378;-52
2023/12/26 13:53:05;;;;;;;;;;;;;;;17.43;63.38;100802.31;7398495;19;1213;-52
2023/12/26 13:55:45;;;;;;;;;;;;;;;17.50;63.55;100793.66;7398023;19;1331;-52
2023/12/26 13:58:28;;;;;;;;;;;;;;;17.76;63.19;100773.78;7397914;19;1479;-51
2023/12/26 14:01:12;;;;;;;;;;;;;;;18.48;61.35;100783.78;7397620;19;1334;-51
2023/12/26 14:03:56;;;;;;;;;;;;;;;18.34;61.25;100781.44;7398048;19;1752;-51
2023/12/26 14:06:39;;;;;;;;;;;;;;;18.18;61.66;100797.94;7395843;19;1846;-51
2023/12/26 14:09:22;;;;;;;;;;;;;;;17.99;61.97;100798.66;7397538;19;1689;-51
2023/12/26 14:12:05;;;;;;;;;;;;;;;17.92;62.32;100805.50;7397023;19;1121;-52
2023/12/26 14:14:48;;;;;;;;;;;;;;;17.88;62.38;100789.69;7396767;19;1310;-51
2023/12/26 14:17:31;;;;;;;;;;;;;;;17.67;63.02;100778.06;7398147;19;1441;-52
2023/12/26 14:20:15;;;;;;;;;;;;;;;17.52;63.43;100774.81;7396349;19;1350;-52
2023/12/26 14:22:58;;;;;;;;;;;;;;;17.37;63.68;100766.25;7397223;19;1567;-52
2023/12/26 14:25:41;;;;;;;;;;;;;;;17.30;63.91;100771.22;7397320;19;1848;-51
2023/12/26 14:28:24;;;;;;;;;;;;;;;17.25;64.05;100768.09;7397767;19;1014;-51
2023/12/26 14:31:07;;;;;;;;;;;;;;;17.41;64.02;100751.66;7396956;19;1816;-51
2023/12/26 14:33:51;;;;;;;;;;;;;;;17.64;63.41;100747.06;7397277;19;1726;-51
2023/12/26 14:36:34;;;;;;;;;;;;;;;17.56;63.24;100748.69;7383270;19;2124;-51
2023/12/26 14:39:17;;;;;;;;;;;;;;;17.52;63.40;100737.38;7397332;19;1765;-51
2023/12/26 14:42:00;;;;;;;;;;;;;;;17.44;63.45;100754.06;7392286;19;1749;-51
2023/12/26 14:44:44;;;;;;;;;;;;;;;17.30;63.92;100770.38;7397016;19;1505;-51
2023/12/26 14:47:27;;;;;;;;;;;;;;;17.20;64.15;100748.88;7394879;19;1854;-51
2023/12/26 14:50:10;;;;;;;;;;;;;;;17.18;64.41;100747.31;7397708;19;1026;-51
2023/12/26 14:52:53;;;;;;;;;;;;;;;17.18;64.47;100758.00;7397577;19;1047;-52
2023/12/26 14:55:36;;;;;;;;;;;;;;;17.25;64.51;100752.06;7397521;19;1094;-52
2023/12/26 14:58:19;;;;;;;;;;;;;;;17.50;63.86;100734.84;7397703;19;1031;-52
2023/12/26 15:01:02;;;;;;;;;;;;;;;17.78;63.20;100745.91;7394243;19;1378;-51
2023/12/26 15:03:51;;;;;;;;;;;;;;;17.61;63.03;100735.81;7395770;19;1397;-51
2023/12/26 15:06:19;;;;;;;;;;;;;;;17.59;63.23;100738.59;7396361;19;1840;-51
2023/12/26 15:08:48;;;;;;;;;;;;;;;17.45;63.52;100750.44;7395795;19;1370;-51
2023/12/26 15:11:17;;;;;;;;;;;;;;;17.32;63.87;100752.41;7396772;19;1070;-51
2023/12/26 15:13:45;;;;;;;;;;;;;;;17.25;64.16;100751.22;7395228;19;1765;-51
2023/12/26 15:16:18;;;;;;;;;;;;;;;17.17;64.34;100742.94;7395225;19;1834;-51
2023/12/26 15:18:49;;;;;;;;;;;;;;;17.13;64.22;100737.03;7396374;19;1685;-51
2023/12/26 15:21:18;;;;;;;;;;;;;;;17.18;64.47;100740.16;7395642;19;1643;-51
2023/12/26 15:23:49;;;;;;;;;;;;;;;17.42;63.92;100720.41;7395002;19;1573;-52
2023/12/26 15:26:18;;;;;;;;;;;;;;;17.63;63.45;100728.50;7394610;19;1873;-52
2023/12/26 15:28:46;;;;;;;;;;;;;;;17.84;62.70;100721.38;7395295;19;1605;-52
2023/12/26 15:31:15;;;;;;;;;;;;;;;17.75;62.76;100710.59;7396233;19;1005;-51
2023/12/26 15:33:42;;;;;;;;;;;;;;;17.65;62.78;100726.53;7394773;19;1512;-52
2023/12/26 15:36:18;;;;;;;;;;;;;;;17.57;63.05;100726.34;7394624;19;1516;-52
2023/12/26 15:38:46;;;;;;;;;;;;;;;17.41;63.54;100732.09;7388007;19;1501;-52
2023/12/26 15:41:15;;;;;;;;;;;;;;;17.23;63.90;100715.72;7394665;19;1499;-51
2023/12/26 15:43:43;;;;;;;;;;;;;;;17.18;64.24;100720.59;7395016;19;1086;-51
2023/12/26 15:46:19;;;;;;;;;;;;;;;17.14;64.41;100732.50;7393548;19;1926;-52
2023/12/26 15:48:48;;;;;;;;;;;;;;;17.08;64.31;100729.34;7394539;19;1575;-51
2023/12/26 15:51:20;;;;;;;;;;;;;;;17.47;63.65;100718.22;7392589;19;1854;-51
2023/12/26 15:53:49;;;;;;;;;;;;;;;18.11;61.75;100727.22;7395019;19;1398;-51
2023/12/26 15:56:20;;;;;;;;;;;;;;;17.98;61.88;100722.88;7394577;19;1966;-51